sensor_id;sensor_type;location;lat;lon;timestamp;P1;durP1;ratioP1;P2;durP2;ratioP2
4754;SDS011;2391;47.212;7.542;2022-11-09T00:02:23;8.00;;;6.03;;
4754;SDS011;2391;47.212;7.542;2022-11-09T00:04:49;5.83;;;5.23;;
4754;SDS011;2391;47.212;7.542;2022-11-09T00:07:15;6.87;;;5.27;;
4754;SDS011;2391;47.212;7.542;2022-11-09T00:09:41;5.90;;;5.30;;
4754;SDS011;2391;47.212;7.542;2022-11-09T00:12:07;7.97;;;5.20;;
4754;SDS011;2391;47.212;7.542;2022-11-09T00:14:33;6.53;;;5.77;;
4754;SDS011;2391;47.212;7.542;2022-11-09T00:16:59;6.63;;;4.97;;
4754;SDS011;2391;47.212;7.542;2022-11-09T00:19:26;6.47;;;5.13;;
4754;SDS011;2391;47.212;7.542;2022-11-09T00:21:51;8.80;;;5.30;;
4754;SDS011;2391;47.212;7.542;2022-11-09T00:24:17;4.57;;;4.20;;
4754;SDS011;2391;47.212;7.542;2022-11-09T00:26:43;4.63;;;3.60;;
4754;SDS011;2391;47.212;7.542;2022-11-09T00:29:09;5.80;;;4.90;;
4754;SDS011;2391;47.212;7.542;2022-11-09T00:31:35;7.77;;;4.90;;
4754;SDS011;2391;47.212;7.542;2022-11-09T00:34:01;7.57;;;4.87;;
4754;SDS011;2391;47.212;7.542;2022-11-09T00:36:27;5.00;;;4.60;;
4754;SDS011;2391;47.212;7.542;2022-11-09T00:38:55;6.70;;;5.60;;
4754;SDS011;2391;47.212;7.542;2022-11-09T00:41:23;6.73;;;5.53;;
4754;SDS011;2391;47.212;7.542;2022-11-09T00:43:49;6.13;;;5.20;;
4754;SDS011;2391;47.212;7.542;2022-11-09T00:46:16;6.37;;;5.77;;
4754;SDS011;2391;47.212;7.542;2022-11-09T00:48:42;5.20;;;4.70;;
4754;SDS011;2391;47.212;7.542;2022-11-09T00:51:08;5.67;;;4.60;;
4754;SDS011;2391;47.212;7.542;2022-11-09T00:53:35;4.67;;;4.20;;
4754;SDS011;2391;47.212;7.542;2022-11-09T00:56:02;8.60;;;5.10;;
4754;SDS011;2391;47.212;7.542;2022-11-09T00:58:30;6.97;;;5.30;;
4754;SDS011;2391;47.212;7.542;2022-11-09T01:00:59;6.50;;;4.80;;
4754;SDS011;2391;47.212;7.542;2022-11-09T01:03:31;8.20;;;4.90;;
4754;SDS011;2391;47.212;7.542;2022-11-09T01:06:00;4.50;;;4.10;;
4754;SDS011;2391;47.212;7.542;2022-11-09T01:08:26;5.30;;;4.80;;
4754;SDS011;2391;47.212;7.542;2022-11-09T01:10:52;6.03;;;5.43;;
4754;SDS011;2391;47.212;7.542;2022-11-09T01:13:18;7.20;;;6.10;;
4754;SDS011;2391;47.212;7.542;2022-11-09T01:15:45;7.10;;;5.60;;
4754;SDS011;2391;47.212;7.542;2022-11-09T01:18:14;8.67;;;6.03;;
4754;SDS011;2391;47.212;7.542;2022-11-09T01:20:41;7.33;;;6.53;;
4754;SDS011;2391;47.212;7.542;2022-11-09T01:23:09;7.23;;;5.93;;
4754;SDS011;2391;47.212;7.542;2022-11-09T01:25:36;5.47;;;4.97;;
4754;SDS011;2391;47.212;7.542;2022-11-09T01:28:03;7.17;;;5.07;;
4754;SDS011;2391;47.212;7.542;2022-11-09T01:30:32;7.90;;;4.63;;
4754;SDS011;2391;47.212;7.542;2022-11-09T01:33:01;5.83;;;5.03;;
4754;SDS011;2391;47.212;7.542;2022-11-09T01:35:28;8.70;;;4.20;;
4754;SDS011;2391;47.212;7.542;2022-11-09T01:37:54;4.40;;;4.00;;
4754;SDS011;2391;47.212;7.542;2022-11-09T01:40:20;4.03;;;3.60;;
4754;SDS011;2391;47.212;7.542;2022-11-09T01:42:45;6.17;;;4.63;;
4754;SDS011;2391;47.212;7.542;2022-11-09T01:47:48;5.20;;;4.03;;
4754;SDS011;2391;47.212;7.542;2022-11-09T01:50:48;6.40;;;4.07;;
4754;SDS011;2391;47.212;7.542;2022-11-09T01:53:28;4.67;;;4.07;;
4754;SDS011;2391;47.212;7.542;2022-11-09T01:55:59;5.17;;;4.27;;
4754;SDS011;2391;47.212;7.542;2022-11-09T01:58:29;5.00;;;4.50;;
4754;SDS011;2391;47.212;7.542;2022-11-09T02:00:57;3.90;;;3.50;;
4754;SDS011;2391;47.212;7.542;2022-11-09T02:03:26;5.17;;;4.30;;
4754;SDS011;2391;47.212;7.542;2022-11-09T02:05:54;3.67;;;3.37;;
4754;SDS011;2391;47.212;7.542;2022-11-09T02:08:22;5.47;;;3.60;;
4754;SDS011;2391;47.212;7.542;2022-11-09T02:10:59;3.60;;;3.17;;
4754;SDS011;2391;47.212;7.542;2022-11-09T02:13:34;4.07;;;3.73;;
4754;SDS011;2391;47.212;7.542;2022-11-09T02:16:03;3.83;;;3.43;;
4754;SDS011;2391;47.212;7.542;2022-11-09T02:18:30;3.97;;;3.53;;
4754;SDS011;2391;47.212;7.542;2022-11-09T02:20:57;4.10;;;3.30;;
4754;SDS011;2391;47.212;7.542;2022-11-09T02:23:24;9.17;;;3.37;;
4754;SDS011;2391;47.212;7.542;2022-11-09T02:26:02;4.13;;;3.73;;
4754;SDS011;2391;47.212;7.542;2022-11-09T02:28:27;4.00;;;3.70;;
4754;SDS011;2391;47.212;7.542;2022-11-09T02:30:53;6.03;;;3.93;;
4754;SDS011;2391;47.212;7.542;2022-11-09T02:33:21;6.70;;;4.10;;
4754;SDS011;2391;47.212;7.542;2022-11-09T02:35:47;3.60;;;3.37;;
4754;SDS011;2391;47.212;7.542;2022-11-09T02:38:13;3.83;;;3.20;;
4754;SDS011;2391;47.212;7.542;2022-11-09T02:40:40;4.60;;;3.83;;
4754;SDS011;2391;47.212;7.542;2022-11-09T02:43:09;3.17;;;2.93;;
4754;SDS011;2391;47.212;7.542;2022-11-09T02:45:36;3.83;;;3.47;;
4754;SDS011;2391;47.212;7.542;2022-11-09T02:48:02;4.00;;;3.70;;
4754;SDS011;2391;47.212;7.542;2022-11-09T02:50:28;3.37;;;3.17;;
4754;SDS011;2391;47.212;7.542;2022-11-09T02:52:54;3.73;;;3.43;;
4754;SDS011;2391;47.212;7.542;2022-11-09T02:55:20;3.63;;;3.37;;
4754;SDS011;2391;47.212;7.542;2022-11-09T02:57:46;6.83;;;3.57;;
4754;SDS011;2391;47.212;7.542;2022-11-09T03:00:12;3.60;;;3.30;;
4754;SDS011;2391;47.212;7.542;2022-11-09T03:02:38;5.60;;;2.80;;
4754;SDS011;2391;47.212;7.542;2022-11-09T03:05:05;3.90;;;3.20;;
4754;SDS011;2391;47.212;7.542;2022-11-09T03:07:31;3.33;;;2.60;;
4754;SDS011;2391;47.212;7.542;2022-11-09T03:09:57;4.30;;;2.97;;
4754;SDS011;2391;47.212;7.542;2022-11-09T03:12:23;3.10;;;2.90;;
4754;SDS011;2391;47.212;7.542;2022-11-09T03:14:55;4.90;;;2.80;;
4754;SDS011;2391;47.212;7.542;2022-11-09T03:17:25;3.10;;;2.90;;
4754;SDS011;2391;47.212;7.542;2022-11-09T03:19:52;4.33;;;3.53;;
4754;SDS011;2391;47.212;7.542;2022-11-09T03:22:18;5.13;;;3.60;;
4754;SDS011;2391;47.212;7.542;2022-11-09T03:24:46;6.17;;;3.83;;
4754;SDS011;2391;47.212;7.542;2022-11-09T03:27:12;4.00;;;3.17;;
4754;SDS011;2391;47.212;7.542;2022-11-09T03:29:38;3.30;;;3.00;;
4754;SDS011;2391;47.212;7.542;2022-11-09T03:32:04;3.50;;;3.20;;
4754;SDS011;2391;47.212;7.542;2022-11-09T03:34:31;3.67;;;3.33;;
4754;SDS011;2391;47.212;7.542;2022-11-09T03:36:57;4.10;;;3.70;;
4754;SDS011;2391;47.212;7.542;2022-11-09T03:39:23;3.80;;;3.50;;
4754;SDS011;2391;47.212;7.542;2022-11-09T03:41:49;5.40;;;3.77;;
4754;SDS011;2391;47.212;7.542;2022-11-09T03:44:15;4.47;;;3.50;;
4754;SDS011;2391;47.212;7.542;2022-11-09T03:46:41;4.13;;;3.70;;
4754;SDS011;2391;47.212;7.542;2022-11-09T03:49:07;4.43;;;4.03;;
4754;SDS011;2391;47.212;7.542;2022-11-09T03:51:32;4.83;;;4.30;;
4754;SDS011;2391;47.212;7.542;2022-11-09T03:53:58;5.47;;;4.00;;
4754;SDS011;2391;47.212;7.542;2022-11-09T03:56:24;4.00;;;3.70;;
4754;SDS011;2391;47.212;7.542;2022-11-09T03:58:50;4.17;;;3.73;;
4754;SDS011;2391;47.212;7.542;2022-11-09T04:01:16;6.90;;;4.50;;
4754;SDS011;2391;47.212;7.542;2022-11-09T04:03:42;4.70;;;4.30;;
4754;SDS011;2391;47.212;7.542;2022-11-09T04:06:08;5.00;;;4.50;;
4754;SDS011;2391;47.212;7.542;2022-11-09T04:08:34;5.20;;;4.23;;
4754;SDS011;2391;47.212;7.542;2022-11-09T04:11:00;5.50;;;4.60;;
4754;SDS011;2391;47.212;7.542;2022-11-09T04:13:26;7.47;;;4.77;;
4754;SDS011;2391;47.212;7.542;2022-11-09T04:15:52;4.83;;;4.33;;
4754;SDS011;2391;47.212;7.542;2022-11-09T04:18:18;5.17;;;3.80;;
4754;SDS011;2391;47.212;7.542;2022-11-09T04:20:44;5.83;;;5.00;;
4754;SDS011;2391;47.212;7.542;2022-11-09T04:23:11;7.53;;;4.70;;
4754;SDS011;2391;47.212;7.542;2022-11-09T04:25:38;4.70;;;4.30;;
4754;SDS011;2391;47.212;7.542;2022-11-09T04:28:05;5.40;;;4.60;;
4754;SDS011;2391;47.212;7.542;2022-11-09T04:30:33;4.90;;;4.50;;
4754;SDS011;2391;47.212;7.542;2022-11-09T04:33:01;4.83;;;4.37;;
4754;SDS011;2391;47.212;7.542;2022-11-09T04:35:28;5.47;;;3.90;;
4754;SDS011;2391;47.212;7.542;2022-11-09T04:40:26;7.00;;;4.53;;
4754;SDS011;2391;47.212;7.542;2022-11-09T04:42:53;10.40;;;5.67;;
4754;SDS011;2391;47.212;7.542;2022-11-09T04:45:20;11.67;;;4.40;;
4754;SDS011;2391;47.212;7.542;2022-11-09T04:47:47;4.90;;;4.40;;
4754;SDS011;2391;47.212;7.542;2022-11-09T04:50:13;5.60;;;5.03;;
4754;SDS011;2391;47.212;7.542;2022-11-09T04:52:39;5.60;;;4.37;;
4754;SDS011;2391;47.212;7.542;2022-11-09T04:55:05;5.43;;;4.80;;
4754;SDS011;2391;47.212;7.542;2022-11-09T04:57:32;5.70;;;4.30;;
4754;SDS011;2391;47.212;7.542;2022-11-09T04:59:58;3.97;;;3.77;;
4754;SDS011;2391;47.212;7.542;2022-11-09T05:02:24;4.97;;;4.57;;
4754;SDS011;2391;47.212;7.542;2022-11-09T05:04:50;7.37;;;4.77;;
4754;SDS011;2391;47.212;7.542;2022-11-09T05:07:16;6.73;;;4.63;;
4754;SDS011;2391;47.212;7.542;2022-11-09T05:09:41;4.90;;;4.40;;
4754;SDS011;2391;47.212;7.542;2022-11-09T05:12:07;5.50;;;4.73;;
4754;SDS011;2391;47.212;7.542;2022-11-09T05:14:35;4.13;;;3.73;;
4754;SDS011;2391;47.212;7.542;2022-11-09T05:17:02;5.97;;;4.37;;
4754;SDS011;2391;47.212;7.542;2022-11-09T05:19:28;5.17;;;4.00;;
4754;SDS011;2391;47.212;7.542;2022-11-09T05:21:54;6.13;;;4.30;;
4754;SDS011;2391;47.212;7.542;2022-11-09T05:24:20;8.13;;;4.20;;
4754;SDS011;2391;47.212;7.542;2022-11-09T05:26:46;5.47;;;4.97;;
4754;SDS011;2391;47.212;7.542;2022-11-09T05:29:12;5.33;;;4.80;;
4754;SDS011;2391;47.212;7.542;2022-11-09T05:31:38;4.77;;;4.37;;
4754;SDS011;2391;47.212;7.542;2022-11-09T05:34:05;4.90;;;3.90;;
4754;SDS011;2391;47.212;7.542;2022-11-09T05:36:32;5.20;;;4.70;;
4754;SDS011;2391;47.212;7.542;2022-11-09T05:38:58;4.20;;;3.90;;
4754;SDS011;2391;47.212;7.542;2022-11-09T05:41:24;4.07;;;3.67;;
4754;SDS011;2391;47.212;7.542;2022-11-09T05:43:51;11.37;;;4.40;;
4754;SDS011;2391;47.212;7.542;2022-11-09T05:46:17;6.17;;;4.10;;
4754;SDS011;2391;47.212;7.542;2022-11-09T05:48:43;4.37;;;3.97;;
4754;SDS011;2391;47.212;7.542;2022-11-09T05:51:10;5.43;;;4.03;;
4754;SDS011;2391;47.212;7.542;2022-11-09T05:53:37;4.53;;;4.23;;
4754;SDS011;2391;47.212;7.542;2022-11-09T05:56:04;5.87;;;3.97;;
4754;SDS011;2391;47.212;7.542;2022-11-09T05:58:32;3.50;;;3.20;;
4754;SDS011;2391;47.212;7.542;2022-11-09T06:01:07;4.00;;;3.60;;
4754;SDS011;2391;47.212;7.542;2022-11-09T06:03:35;3.97;;;3.40;;
4754;SDS011;2391;47.212;7.542;2022-11-09T06:06:06;5.40;;;3.67;;
4754;SDS011;2391;47.212;7.542;2022-11-09T06:08:30;6.80;;;4.27;;
4754;SDS011;2391;47.212;7.542;2022-11-09T06:10:57;4.13;;;3.73;;
4754;SDS011;2391;47.212;7.542;2022-11-09T06:13:24;4.07;;;3.73;;
4754;SDS011;2391;47.212;7.542;2022-11-09T06:15:54;4.53;;;4.00;;
4754;SDS011;2391;47.212;7.542;2022-11-09T06:18:24;6.10;;;4.77;;
4754;SDS011;2391;47.212;7.542;2022-11-09T06:20:57;7.43;;;4.30;;
4754;SDS011;2391;47.212;7.542;2022-11-09T06:23:20;4.10;;;3.70;;
4754;SDS011;2391;47.212;7.542;2022-11-09T06:25:48;9.00;;;3.77;;
4754;SDS011;2391;47.212;7.542;2022-11-09T06:28:15;5.23;;;4.30;;
4754;SDS011;2391;47.212;7.542;2022-11-09T06:30:41;4.93;;;4.43;;
4754;SDS011;2391;47.212;7.542;2022-11-09T06:33:07;4.40;;;4.00;;
4754;SDS011;2391;47.212;7.542;2022-11-09T06:35:33;6.20;;;4.00;;
4754;SDS011;2391;47.212;7.542;2022-11-09T06:37:59;6.60;;;4.00;;
4754;SDS011;2391;47.212;7.542;2022-11-09T06:40:25;8.20;;;4.10;;
4754;SDS011;2391;47.212;7.542;2022-11-09T06:42:54;5.10;;;4.33;;
4754;SDS011;2391;47.212;7.542;2022-11-09T06:45:23;4.40;;;4.00;;
4754;SDS011;2391;47.212;7.542;2022-11-09T06:47:53;3.73;;;3.53;;
4754;SDS011;2391;47.212;7.542;2022-11-09T06:50:22;7.50;;;3.60;;
4754;SDS011;2391;47.212;7.542;2022-11-09T06:52:48;8.90;;;4.00;;
4754;SDS011;2391;47.212;7.542;2022-11-09T06:55:14;6.67;;;3.10;;
4754;SDS011;2391;47.212;7.542;2022-11-09T06:57:41;3.97;;;3.70;;
4754;SDS011;2391;47.212;7.542;2022-11-09T07:00:07;8.27;;;4.93;;
4754;SDS011;2391;47.212;7.542;2022-11-09T07:02:34;6.47;;;4.73;;
4754;SDS011;2391;47.212;7.542;2022-11-09T07:05:01;5.70;;;4.60;;
4754;SDS011;2391;47.212;7.542;2022-11-09T07:07:27;4.47;;;4.07;;
4754;SDS011;2391;47.212;7.542;2022-11-09T07:09:52;8.67;;;4.00;;
4754;SDS011;2391;47.212;7.542;2022-11-09T07:12:20;4.73;;;4.20;;
4754;SDS011;2391;47.212;7.542;2022-11-09T07:14:46;6.10;;;4.13;;
4754;SDS011;2391;47.212;7.542;2022-11-09T07:20:06;5.70;;;4.13;;
4754;SDS011;2391;47.212;7.542;2022-11-09T07:22:33;4.07;;;3.77;;
4754;SDS011;2391;47.212;7.542;2022-11-09T07:25:01;5.83;;;4.47;;
4754;SDS011;2391;47.212;7.542;2022-11-09T07:27:26;5.27;;;4.60;;
4754;SDS011;2391;47.212;7.542;2022-11-09T07:29:52;6.80;;;4.20;;
4754;SDS011;2391;47.212;7.542;2022-11-09T07:32:18;5.63;;;5.00;;
4754;SDS011;2391;47.212;7.542;2022-11-09T07:34:44;8.00;;;4.93;;
4754;SDS011;2391;47.212;7.542;2022-11-09T07:37:10;7.63;;;5.60;;
4754;SDS011;2391;47.212;7.542;2022-11-09T07:39:36;11.77;;;7.70;;
4754;SDS011;2391;47.212;7.542;2022-11-09T07:42:02;12.70;;;8.23;;
4754;SDS011;2391;47.212;7.542;2022-11-09T07:44:28;9.53;;;6.30;;
4754;SDS011;2391;47.212;7.542;2022-11-09T07:46:54;9.80;;;6.50;;
4754;SDS011;2391;47.212;7.542;2022-11-09T07:49:19;8.03;;;6.27;;
4754;SDS011;2391;47.212;7.542;2022-11-09T07:51:45;7.60;;;5.37;;
4754;SDS011;2391;47.212;7.542;2022-11-09T07:54:11;7.63;;;5.60;;
4754;SDS011;2391;47.212;7.542;2022-11-09T07:56:37;6.47;;;4.83;;
4754;SDS011;2391;47.212;7.542;2022-11-09T07:59:02;7.53;;;5.07;;
4754;SDS011;2391;47.212;7.542;2022-11-09T08:01:29;5.97;;;5.30;;
4754;SDS011;2391;47.212;7.542;2022-11-09T08:03:55;8.17;;;5.93;;
4754;SDS011;2391;47.212;7.542;2022-11-09T08:06:21;6.57;;;5.33;;
4754;SDS011;2391;47.212;7.542;2022-11-09T08:08:49;8.00;;;6.03;;
4754;SDS011;2391;47.212;7.542;2022-11-09T08:11:14;5.90;;;5.30;;
4754;SDS011;2391;47.212;7.542;2022-11-09T08:13:40;7.17;;;5.30;;
4754;SDS011;2391;47.212;7.542;2022-11-09T08:16:06;6.37;;;5.77;;
4754;SDS011;2391;47.212;7.542;2022-11-09T08:18:32;8.40;;;5.43;;
4754;SDS011;2391;47.212;7.542;2022-11-09T08:21:01;6.90;;;6.17;;
4754;SDS011;2391;47.212;7.542;2022-11-09T08:23:29;6.17;;;5.67;;
4754;SDS011;2391;47.212;7.542;2022-11-09T08:25:55;6.70;;;5.87;;
4754;SDS011;2391;47.212;7.542;2022-11-09T08:28:21;8.53;;;6.70;;
4754;SDS011;2391;47.212;7.542;2022-11-09T08:30:54;9.27;;;7.10;;
4754;SDS011;2391;47.212;7.542;2022-11-09T08:33:23;6.97;;;5.97;;
4754;SDS011;2391;47.212;7.542;2022-11-09T08:35:50;7.10;;;6.30;;
4754;SDS011;2391;47.212;7.542;2022-11-09T08:38:16;8.60;;;5.70;;
4754;SDS011;2391;47.212;7.542;2022-11-09T08:40:41;6.13;;;5.50;;
4754;SDS011;2391;47.212;7.542;2022-11-09T08:43:08;7.57;;;6.30;;
4754;SDS011;2391;47.212;7.542;2022-11-09T08:45:36;10.23;;;5.23;;
4754;SDS011;2391;47.212;7.542;2022-11-09T08:48:03;6.97;;;6.27;;
4754;SDS011;2391;47.212;7.542;2022-11-09T08:50:30;10.30;;;6.33;;
4754;SDS011;2391;47.212;7.542;2022-11-09T08:52:57;6.87;;;6.23;;
4754;SDS011;2391;47.212;7.542;2022-11-09T08:55:24;7.83;;;6.20;;
4754;SDS011;2391;47.212;7.542;2022-11-09T08:57:54;8.40;;;5.80;;
4754;SDS011;2391;47.212;7.542;2022-11-09T09:00:22;6.20;;;5.60;;
4754;SDS011;2391;47.212;7.542;2022-11-09T09:02:48;7.17;;;6.00;;
4754;SDS011;2391;47.212;7.542;2022-11-09T09:05:14;8.57;;;5.83;;
4754;SDS011;2391;47.212;7.542;2022-11-09T09:07:41;10.67;;;7.77;;
4754;SDS011;2391;47.212;7.542;2022-11-09T09:10:07;12.80;;;9.27;;
4754;SDS011;2391;47.212;7.542;2022-11-09T09:12:34;8.47;;;6.80;;
4754;SDS011;2391;47.212;7.542;2022-11-09T09:15:00;11.50;;;6.63;;
4754;SDS011;2391;47.212;7.542;2022-11-09T09:17:26;9.93;;;7.10;;
4754;SDS011;2391;47.212;7.542;2022-11-09T09:19:52;11.37;;;7.83;;
4754;SDS011;2391;47.212;7.542;2022-11-09T09:22:18;12.20;;;8.80;;
4754;SDS011;2391;47.212;7.542;2022-11-09T09:24:44;16.33;;;9.50;;
4754;SDS011;2391;47.212;7.542;2022-11-09T09:27:10;10.77;;;7.90;;
4754;SDS011;2391;47.212;7.542;2022-11-09T09:29:36;9.80;;;7.50;;
4754;SDS011;2391;47.212;7.542;2022-11-09T09:32:02;9.90;;;6.40;;
4754;SDS011;2391;47.212;7.542;2022-11-09T09:34:28;10.53;;;7.10;;
4754;SDS011;2391;47.212;7.542;2022-11-09T09:36:53;8.10;;;7.30;;
4754;SDS011;2391;47.212;7.542;2022-11-09T09:39:19;9.17;;;8.03;;
4754;SDS011;2391;47.212;7.542;2022-11-09T09:41:49;11.63;;;8.07;;
4754;SDS011;2391;47.212;7.542;2022-11-09T09:49:27;9.07;;;7.20;;
4754;SDS011;2391;47.212;7.542;2022-11-09T09:52:00;8.47;;;7.30;;
4754;SDS011;2391;47.212;7.542;2022-11-09T09:54:41;8.83;;;7.60;;
4754;SDS011;2391;47.212;7.542;2022-11-09T09:57:16;10.20;;;7.70;;
4754;SDS011;2391;47.212;7.542;2022-11-09T09:59:49;10.70;;;7.33;;
4754;SDS011;2391;47.212;7.542;2022-11-09T10:02:19;11.13;;;8.00;;
4754;SDS011;2391;47.212;7.542;2022-11-09T10:04:49;10.90;;;7.50;;
4754;SDS011;2391;47.212;7.542;2022-11-09T10:07:21;11.30;;;8.03;;
4754;SDS011;2391;47.212;7.542;2022-11-09T10:15:43;9.30;;;7.87;;
4754;SDS011;2391;47.212;7.542;2022-11-09T10:26:19;10.27;;;8.10;;
4754;SDS011;2391;47.212;7.542;2022-11-09T10:28:54;11.57;;;7.47;;
4754;SDS011;2391;47.212;7.542;2022-11-09T10:31:22;9.47;;;8.27;;
4754;SDS011;2391;47.212;7.542;2022-11-09T10:33:51;9.23;;;8.00;;
4754;SDS011;2391;47.212;7.542;2022-11-09T10:36:41;12.70;;;8.97;;
4754;SDS011;2391;47.212;7.542;2022-11-09T10:39:07;11.70;;;8.63;;
4754;SDS011;2391;47.212;7.542;2022-11-09T10:41:39;12.37;;;7.57;;
4754;SDS011;2391;47.212;7.542;2022-11-09T10:44:11;10.73;;;7.10;;
4754;SDS011;2391;47.212;7.542;2022-11-09T10:49:31;9.13;;;6.97;;
4754;SDS011;2391;47.212;7.542;2022-11-09T10:51:58;11.47;;;7.93;;
4754;SDS011;2391;47.212;7.542;2022-11-09T10:54:25;18.17;;;9.30;;
4754;SDS011;2391;47.212;7.542;2022-11-09T10:57:16;9.37;;;8.37;;
4754;SDS011;2391;47.212;7.542;2022-11-09T10:59:43;11.73;;;8.70;;
4754;SDS011;2391;47.212;7.542;2022-11-09T11:07:37;13.50;;;9.20;;
4754;SDS011;2391;47.212;7.542;2022-11-09T11:12:45;11.53;;;8.63;;
4754;SDS011;2391;47.212;7.542;2022-11-09T11:15:37;13.23;;;9.47;;
4754;SDS011;2391;47.212;7.542;2022-11-09T11:18:37;14.80;;;9.97;;
4754;SDS011;2391;47.212;7.542;2022-11-09T11:20:46;9.87;;;8.47;;
4754;SDS011;2391;47.212;7.542;2022-11-09T11:23:16;16.37;;;8.87;;
4754;SDS011;2391;47.212;7.542;2022-11-09T11:28:34;16.33;;;8.37;;
4754;SDS011;2391;47.212;7.542;2022-11-09T11:31:02;11.80;;;8.00;;
4754;SDS011;2391;47.212;7.542;2022-11-09T11:33:29;11.13;;;7.80;;
4754;SDS011;2391;47.212;7.542;2022-11-09T11:41:42;6.93;;;6.23;;
4754;SDS011;2391;47.212;7.542;2022-11-09T11:44:22;5.40;;;4.90;;
4754;SDS011;2391;47.212;7.542;2022-11-09T11:47:01;4.77;;;4.37;;
4754;SDS011;2391;47.212;7.542;2022-11-09T11:54:51;4.37;;;3.00;;
4754;SDS011;2391;47.212;7.542;2022-11-09T11:57:31;3.80;;;3.50;;
4754;SDS011;2391;47.212;7.542;2022-11-09T12:07:57;2.90;;;2.70;;
4754;SDS011;2391;47.212;7.542;2022-11-09T12:18:44;5.07;;;3.27;;
4754;SDS011;2391;47.212;7.542;2022-11-09T12:29:38;7.57;;;3.50;;
4754;SDS011;2391;47.212;7.542;2022-11-09T12:32:16;6.80;;;5.90;;
4754;SDS011;2391;47.212;7.542;2022-11-09T12:34:50;13.40;;;8.70;;
4754;SDS011;2391;47.212;7.542;2022-11-09T12:37:34;9.73;;;7.30;;
4754;SDS011;2391;47.212;7.542;2022-11-09T12:40:22;5.27;;;4.80;;
4754;SDS011;2391;47.212;7.542;2022-11-09T12:42:40;12.70;;;7.60;;
4754;SDS011;2391;47.212;7.542;2022-11-09T12:45:42;5.60;;;3.83;;
4754;SDS011;2391;47.212;7.542;2022-11-09T12:48:08;10.03;;;5.50;;
4754;SDS011;2391;47.212;7.542;2022-11-09T12:50:38;3.90;;;3.57;;
4754;SDS011;2391;47.212;7.542;2022-11-09T12:53:04;6.63;;;5.90;;
4754;SDS011;2391;47.212;7.542;2022-11-09T12:58:00;16.63;;;10.20;;
4754;SDS011;2391;47.212;7.542;2022-11-09T13:03:12;19.17;;;10.00;;
4754;SDS011;2391;47.212;7.542;2022-11-09T13:05:32;13.43;;;8.70;;
4754;SDS011;2391;47.212;7.542;2022-11-09T13:08:02;16.17;;;8.57;;
4754;SDS011;2391;47.212;7.542;2022-11-09T13:10:32;8.47;;;5.23;;
4754;SDS011;2391;47.212;7.542;2022-11-09T13:13:04;5.60;;;4.60;;
4754;SDS011;2391;47.212;7.542;2022-11-09T13:15:36;8.83;;;6.07;;
4754;SDS011;2391;47.212;7.542;2022-11-09T13:18:04;14.53;;;11.93;;
4754;SDS011;2391;47.212;7.542;2022-11-09T13:23:22;4.77;;;4.30;;
4754;SDS011;2391;47.212;7.542;2022-11-09T13:30:56;4.70;;;4.10;;
4754;SDS011;2391;47.212;7.542;2022-11-09T13:33:43;4.23;;;3.83;;
4754;SDS011;2391;47.212;7.542;2022-11-09T13:38:39;5.60;;;4.80;;
4754;SDS011;2391;47.212;7.542;2022-11-09T13:41:50;6.30;;;4.70;;
4754;SDS011;2391;47.212;7.542;2022-11-09T13:44:05;6.93;;;4.00;;
4754;SDS011;2391;47.212;7.542;2022-11-09T13:46:34;4.90;;;4.00;;
4754;SDS011;2391;47.212;7.542;2022-11-09T13:49:02;5.13;;;4.00;;
4754;SDS011;2391;47.212;7.542;2022-11-09T13:54:30;4.80;;;4.30;;
4754;SDS011;2391;47.212;7.542;2022-11-09T13:56:58;3.73;;;3.40;;
4754;SDS011;2391;47.212;7.542;2022-11-09T13:59:31;4.37;;;3.97;;
4754;SDS011;2391;47.212;7.542;2022-11-09T14:02:00;3.80;;;3.50;;
4754;SDS011;2391;47.212;7.542;2022-11-09T14:04:28;5.03;;;3.60;;
4754;SDS011;2391;47.212;7.542;2022-11-09T14:07:08;3.60;;;3.30;;
4754;SDS011;2391;47.212;7.542;2022-11-09T14:23:18;4.27;;;3.97;;
4754;SDS011;2391;47.212;7.542;2022-11-09T14:25:45;7.23;;;4.93;;
4754;SDS011;2391;47.212;7.542;2022-11-09T14:30:49;5.00;;;4.60;;
4754;SDS011;2391;47.212;7.542;2022-11-09T14:35:58;9.70;;;5.43;;
4754;SDS011;2391;47.212;7.542;2022-11-09T14:40:58;7.07;;;5.23;;
4754;SDS011;2391;47.212;7.542;2022-11-09T14:43:29;5.77;;;5.10;;
4754;SDS011;2391;47.212;7.542;2022-11-09T14:46:02;7.03;;;6.10;;
4754;SDS011;2391;47.212;7.542;2022-11-09T14:48:30;8.07;;;5.73;;
4754;SDS011;2391;47.212;7.542;2022-11-09T14:51:01;7.53;;;6.10;;
4754;SDS011;2391;47.212;7.542;2022-11-09T14:53:35;5.70;;;5.20;;
4754;SDS011;2391;47.212;7.542;2022-11-09T14:56:06;7.47;;;5.13;;
4754;SDS011;2391;47.212;7.542;2022-11-09T14:58:35;6.53;;;5.70;;
4754;SDS011;2391;47.212;7.542;2022-11-09T15:01:05;6.27;;;5.67;;
4754;SDS011;2391;47.212;7.542;2022-11-09T15:03:32;12.50;;;6.20;;
4754;SDS011;2391;47.212;7.542;2022-11-09T15:06:03;7.40;;;6.43;;
4754;SDS011;2391;47.212;7.542;2022-11-09T15:08:30;8.47;;;6.17;;
4754;SDS011;2391;47.212;7.542;2022-11-09T15:10:56;6.97;;;5.50;;
4754;SDS011;2391;47.212;7.542;2022-11-09T15:13:28;5.87;;;5.20;;
4754;SDS011;2391;47.212;7.542;2022-11-09T15:15:55;7.13;;;6.07;;
4754;SDS011;2391;47.212;7.542;2022-11-09T15:18:23;9.57;;;5.77;;
4754;SDS011;2391;47.212;7.542;2022-11-09T15:26:43;9.23;;;7.13;;
4754;SDS011;2391;47.212;7.542;2022-11-09T15:34:38;9.90;;;7.13;;
4754;SDS011;2391;47.212;7.542;2022-11-09T15:39:54;8.40;;;7.33;;
4754;SDS011;2391;47.212;7.542;2022-11-09T15:42:21;9.30;;;8.00;;
4754;SDS011;2391;47.212;7.542;2022-11-09T15:44:54;10.60;;;7.70;;
4754;SDS011;2391;47.212;7.542;2022-11-09T15:47:26;10.40;;;8.60;;
4754;SDS011;2391;47.212;7.542;2022-11-09T15:49:59;12.17;;;8.80;;
4754;SDS011;2391;47.212;7.542;2022-11-09T15:52:27;9.27;;;8.00;;
4754;SDS011;2391;47.212;7.542;2022-11-09T15:54:53;13.90;;;9.57;;
4754;SDS011;2391;47.212;7.542;2022-11-09T15:57:19;12.43;;;9.77;;
4754;SDS011;2391;47.212;7.542;2022-11-09T15:59:47;15.53;;;10.10;;
4754;SDS011;2391;47.212;7.542;2022-11-09T16:02:14;13.83;;;9.00;;
4754;SDS011;2391;47.212;7.542;2022-11-09T16:04:40;16.43;;;9.43;;
4754;SDS011;2391;47.212;7.542;2022-11-09T16:07:06;18.03;;;10.80;;
4754;SDS011;2391;47.212;7.542;2022-11-09T16:09:37;14.93;;;9.57;;
4754;SDS011;2391;47.212;7.542;2022-11-09T16:12:06;11.40;;;9.77;;
4754;SDS011;2391;47.212;7.542;2022-11-09T16:14:32;11.70;;;9.33;;
4754;SDS011;2391;47.212;7.542;2022-11-09T16:16:58;15.63;;;10.87;;
4754;SDS011;2391;47.212;7.542;2022-11-09T16:19:24;13.03;;;9.90;;
4754;SDS011;2391;47.212;7.542;2022-11-09T16:21:51;11.63;;;9.50;;
4754;SDS011;2391;47.212;7.542;2022-11-09T16:24:17;15.40;;;10.80;;
4754;SDS011;2391;47.212;7.542;2022-11-09T16:26:43;13.20;;;10.10;;
4754;SDS011;2391;47.212;7.542;2022-11-09T16:29:10;10.33;;;9.10;;
4754;SDS011;2391;47.212;7.542;2022-11-09T16:31:36;12.10;;;9.37;;
4754;SDS011;2391;47.212;7.542;2022-11-09T16:34:02;13.37;;;9.90;;
4754;SDS011;2391;47.212;7.542;2022-11-09T16:36:28;13.67;;;10.20;;
4754;SDS011;2391;47.212;7.542;2022-11-09T16:38:55;13.70;;;10.03;;
4754;SDS011;2391;47.212;7.542;2022-11-09T16:41:22;13.50;;;10.30;;
4754;SDS011;2391;47.212;7.542;2022-11-09T16:43:50;13.00;;;10.03;;
4754;SDS011;2391;47.212;7.542;2022-11-09T16:46:23;15.97;;;11.30;;
4754;SDS011;2391;47.212;7.542;2022-11-09T16:48:52;14.23;;;10.27;;
4754;SDS011;2391;47.212;7.542;2022-11-09T16:51:18;11.53;;;10.00;;
4754;SDS011;2391;47.212;7.542;2022-11-09T16:53:44;18.27;;;10.70;;
4754;SDS011;2391;47.212;7.542;2022-11-09T16:56:10;20.67;;;11.30;;
4754;SDS011;2391;47.212;7.542;2022-11-09T16:58:36;13.50;;;10.73;;
4754;SDS011;2391;47.212;7.542;2022-11-09T17:01:02;17.67;;;11.07;;
4754;SDS011;2391;47.212;7.542;2022-11-09T17:03:28;18.37;;;12.07;;
4754;SDS011;2391;47.212;7.542;2022-11-09T17:05:58;18.93;;;12.40;;
4754;SDS011;2391;47.212;7.542;2022-11-09T17:08:26;15.93;;;12.83;;
4754;SDS011;2391;47.212;7.542;2022-11-09T17:10:52;23.70;;;15.43;;
4754;SDS011;2391;47.212;7.542;2022-11-09T17:13:18;20.40;;;15.00;;
4754;SDS011;2391;47.212;7.542;2022-11-09T17:15:45;20.07;;;13.10;;
4754;SDS011;2391;47.212;7.542;2022-11-09T17:18:13;21.00;;;13.77;;
4754;SDS011;2391;47.212;7.542;2022-11-09T17:20:40;21.47;;;14.60;;
4754;SDS011;2391;47.212;7.542;2022-11-09T17:23:09;19.33;;;14.00;;
4754;SDS011;2391;47.212;7.542;2022-11-09T17:25:35;21.10;;;14.47;;
4754;SDS011;2391;47.212;7.542;2022-11-09T17:28:01;18.67;;;13.97;;